createdAt,value
2022-11-17T00:01:19.633Z,15.48
2022-11-17T00:03:49.786Z,13.55
2022-11-17T00:06:17.802Z,13.70
2022-11-17T00:08:44.209Z,14.13
2022-11-17T00:11:10.703Z,14.43
2022-11-17T00:13:55.846Z,13.73
2022-11-17T00:16:22.538Z,13.52
2022-11-17T00:19:08.317Z,12.98
2022-11-17T00:21:35.066Z,12.95
2022-11-17T00:24:01.546Z,13.02
2022-11-17T00:26:30.249Z,13.85
2022-11-17T00:28:58.790Z,14.82
2022-11-17T00:31:45.052Z,15.02
2022-11-17T00:34:17.285Z,14.10
2022-11-17T00:36:46.744Z,16.33
2022-11-17T00:39:15.974Z,15.40
2022-11-17T00:41:42.618Z,15.25
2022-11-17T00:44:09.801Z,16.13
2022-11-17T00:46:37.649Z,16.55
2022-11-17T00:49:05.298Z,15.75
2022-11-17T00:51:32.210Z,14.88
2022-11-17T00:53:58.778Z,14.70
2022-11-17T00:56:25.682Z,15.90
2022-11-17T00:58:52.590Z,15.18
2022-11-17T01:01:19.511Z,15.10
2022-11-17T01:03:46.018Z,15.57
2022-11-17T01:06:15.673Z,15.43
2022-11-17T01:08:42.618Z,15.73
2022-11-17T01:11:14.925Z,15.52
2022-11-17T01:13:42.646Z,15.90
2022-11-17T01:16:12.719Z,15.93
2022-11-17T01:18:40.272Z,17.02
2022-11-17T01:21:16.472Z,16.88
2022-11-17T01:23:44.328Z,17.25
2022-11-17T01:26:13.472Z,16.52
2022-11-17T01:28:40.702Z,17.85
2022-11-17T01:31:11.418Z,16.67
2022-11-17T01:33:37.962Z,18.17
2022-11-17T01:36:12.563Z,17.25
2022-11-17T01:38:39.233Z,16.40
2022-11-17T01:41:08.042Z,17.48
2022-11-17T01:43:38.217Z,16.65
2022-11-17T01:46:07.717Z,17.10
2022-11-17T01:48:34.236Z,16.15
2022-11-17T01:51:00.969Z,18.83
2022-11-17T01:53:28.455Z,14.60
2022-11-17T01:55:59.730Z,15.80
2022-11-17T01:58:31.639Z,14.88
2022-11-17T02:00:58.142Z,14.85
2022-11-17T02:03:26.933Z,14.93
2022-11-17T02:06:11.611Z,15.73
2022-11-17T02:08:41.094Z,14.48
2022-11-17T02:11:16.235Z,14.00
2022-11-17T02:13:42.711Z,15.65
2022-11-17T02:16:13.645Z,15.18
2022-11-17T02:18:41.914Z,15.00
2022-11-17T02:21:11.147Z,14.30
2022-11-17T02:24:17.137Z,14.93
2022-11-17T02:27:09.860Z,14.30
2022-11-17T02:29:42.193Z,14.23
2022-11-17T02:32:16.903Z,14.25
2022-11-17T02:35:20.347Z,14.35
2022-11-17T02:37:57.234Z,14.23
2022-11-17T02:40:34.266Z,13.00
2022-11-17T02:43:23.157Z,13.15
2022-11-17T02:46:00.834Z,13.45
2022-11-17T02:48:32.472Z,12.38
2022-11-17T02:50:59.849Z,13.25
2022-11-17T02:53:28.713Z,13.70
2022-11-17T02:55:58.581Z,13.55
2022-11-17T02:58:24.975Z,13.15
2022-11-17T03:01:09.680Z,12.60
2022-11-17T03:03:44.975Z,13.50
2022-11-17T03:06:49.548Z,13.05
2022-11-17T03:09:28.024Z,13.35
2022-11-17T03:12:03.555Z,13.07
2022-11-17T03:14:40.088Z,13.43
2022-11-17T03:17:21.375Z,12.45
2022-11-17T03:22:42.739Z,12.45
2022-11-17T03:25:14.749Z,13.55
2022-11-17T03:27:47.251Z,14.18
2022-11-17T03:30:14.885Z,14.38
2022-11-17T03:32:46.741Z,13.02
2022-11-17T03:35:18.853Z,13.88
2022-11-17T03:37:51.845Z,13.23
2022-11-17T03:40:22.205Z,13.80
2022-11-17T03:42:53.913Z,12.50
2022-11-17T03:45:26.628Z,12.73
2022-11-17T03:48:03.326Z,12.60
2022-11-17T03:50:35.052Z,14.35
2022-11-17T03:53:03.487Z,13.23
2022-11-17T03:55:41.587Z,13.70
2022-11-17T03:58:14.376Z,13.45
2022-11-17T04:00:41.884Z,13.32
2022-11-17T04:03:08.363Z,13.63
2022-11-17T04:05:34.770Z,14.98
2022-11-17T04:08:01.190Z,13.52
2022-11-17T04:10:27.696Z,14.55
2022-11-17T04:13:13.136Z,13.23
2022-11-17T04:15:58.835Z,14.73
2022-11-17T04:18:25.878Z,15.15
2022-11-17T04:20:54.515Z,13.93
2022-11-17T04:23:22.496Z,14.05
2022-11-17T04:26:12.784Z,14.20
2022-11-17T04:28:45.716Z,13.90
2022-11-17T04:31:18.310Z,14.10
2022-11-17T04:33:49.741Z,13.32
2022-11-17T04:36:18.455Z,13.93
2022-11-17T04:38:50.501Z,12.93
2022-11-17T04:41:36.907Z,14.48
2022-11-17T04:44:05.401Z,13.73
2022-11-17T04:46:33.247Z,13.65
2022-11-17T04:49:01.842Z,14.90
2022-11-17T04:51:29.750Z,13.32
2022-11-17T04:53:57.027Z,15.43
2022-11-17T04:56:25.677Z,13.82
2022-11-17T04:58:52.515Z,15.13
2022-11-17T05:01:19.721Z,15.43
2022-11-17T05:03:50.347Z,14.57
2022-11-17T05:06:21.295Z,14.68
2022-11-17T05:08:48.009Z,16.48
2022-11-17T05:11:34.781Z,15.43
2022-11-17T05:14:01.770Z,16.65
2022-11-17T05:16:47.390Z,16.65
2022-11-17T05:19:18.890Z,16.13
2022-11-17T05:21:45.326Z,16.92
2022-11-17T05:24:14.213Z,15.70
2022-11-17T05:26:42.302Z,16.10
2022-11-17T05:29:10.036Z,15.88
2022-11-17T05:31:37.018Z,16.60
2022-11-17T05:34:05.038Z,16.50
2022-11-17T05:36:32.124Z,15.95
2022-11-17T05:38:59.346Z,16.92
2022-11-17T05:41:26.155Z,17.17
2022-11-17T05:43:52.653Z,17.60
2022-11-17T05:46:20.566Z,17.85
2022-11-17T05:48:49.891Z,16.75
2022-11-17T05:51:21.520Z,16.50
2022-11-17T05:53:48.299Z,18.58
2022-11-17T05:56:33.262Z,17.00
2022-11-17T05:59:22.113Z,16.23
2022-11-17T06:02:03.810Z,16.27
2022-11-17T06:04:30.615Z,16.80
2022-11-17T06:07:00.407Z,16.65
2022-11-17T06:09:34.771Z,15.80
2022-11-17T06:12:05.964Z,16.00
2022-11-17T06:14:33.520Z,17.02
2022-11-17T06:17:04.806Z,17.25
2022-11-17T06:19:40.388Z,18.13
2022-11-17T06:22:32.477Z,16.83
2022-11-17T06:25:01.719Z,16.20
2022-11-17T06:27:30.774Z,15.73
2022-11-17T06:30:00.544Z,14.07
2022-11-17T06:32:27.867Z,15.65
2022-11-17T06:34:56.384Z,15.93
2022-11-17T06:37:24.852Z,14.63
2022-11-17T06:39:51.314Z,15.55
2022-11-17T06:42:18.096Z,14.93
2022-11-17T06:44:44.465Z,15.10
2022-11-17T06:47:10.885Z,16.42
2022-11-17T06:49:37.280Z,14.25
2022-11-17T06:52:03.730Z,15.68
2022-11-17T06:54:30.122Z,14.00
2022-11-17T06:56:57.080Z,14.35
2022-11-17T06:59:23.460Z,14.38
2022-11-17T07:01:49.863Z,13.45
2022-11-17T07:04:16.240Z,14.05
2022-11-17T07:06:42.646Z,13.80
2022-11-17T07:09:09.097Z,12.80
2022-11-17T07:11:38.397Z,13.38
2022-11-17T07:14:04.798Z,12.82
2022-11-17T07:16:32.428Z,13.80
2022-11-17T07:18:59.284Z,13.25
2022-11-17T07:21:25.762Z,12.63
2022-11-17T07:23:52.168Z,13.38
2022-11-17T07:26:18.580Z,13.93
2022-11-17T07:28:44.966Z,13.85
2022-11-17T07:31:11.363Z,12.50
2022-11-17T07:33:37.814Z,12.90
2022-11-17T07:36:11.580Z,13.45
2022-11-17T07:38:39.769Z,13.13
2022-11-17T07:41:08.736Z,13.40
2022-11-17T07:43:36.262Z,13.43
2022-11-17T07:46:12.141Z,12.98
2022-11-17T07:48:39.519Z,12.77
2022-11-17T07:51:06.926Z,13.45
2022-11-17T07:53:35.052Z,12.55
2022-11-17T07:56:09.076Z,13.05
2022-11-17T07:58:40.017Z,13.35
2022-11-17T08:01:09.999Z,13.00
2022-11-17T08:03:36.671Z,12.43
2022-11-17T08:06:05.548Z,13.05
2022-11-17T08:08:32.591Z,13.02
2022-11-17T08:11:07.328Z,13.73
2022-11-17T08:13:34.442Z,12.98
2022-11-17T08:16:01.495Z,13.55
2022-11-17T08:18:29.267Z,14.27
2022-11-17T08:21:05.765Z,13.02
2022-11-17T08:23:32.838Z,12.85
2022-11-17T08:25:59.800Z,12.93
2022-11-17T08:28:26.267Z,14.43
2022-11-17T08:30:53.008Z,14.05
2022-11-17T08:33:19.426Z,13.95
2022-11-17T08:35:45.847Z,12.60
2022-11-17T08:38:15.171Z,12.85
2022-11-17T08:40:42.227Z,13.60
2022-11-17T08:43:08.692Z,13.13
2022-11-17T08:45:35.177Z,12.68
2022-11-17T08:48:01.719Z,12.73
2022-11-17T08:50:28.154Z,14.15
2022-11-17T08:52:54.542Z,13.43
2022-11-17T08:55:20.992Z,13.13
2022-11-17T08:57:47.470Z,12.88
2022-11-17T09:00:14.427Z,12.82
2022-11-17T09:02:40.834Z,13.20
2022-11-17T09:05:07.822Z,12.75
2022-11-17T09:07:35.649Z,13.43
2022-11-17T09:10:04.333Z,12.23
2022-11-17T09:12:30.814Z,13.18
2022-11-17T09:14:57.195Z,13.38
2022-11-17T09:17:23.582Z,12.77
2022-11-17T09:19:49.984Z,14.02
2022-11-17T09:22:16.409Z,13.63
2022-11-17T09:24:42.837Z,13.48
2022-11-17T09:27:09.255Z,13.20
2022-11-17T09:29:35.677Z,12.88
2022-11-17T09:32:02.317Z,14.15
2022-11-17T09:34:29.378Z,14.93
2022-11-17T09:36:55.904Z,14.27
2022-11-17T09:39:22.283Z,13.82
2022-11-17T09:41:51.373Z,14.93
2022-11-17T09:44:40.330Z,13.50
2022-11-17T09:47:31.252Z,14.10
2022-11-17T09:50:03.598Z,15.73
2022-11-17T09:52:43.334Z,15.15
2022-11-17T09:55:33.740Z,16.20
2022-11-17T09:58:08.389Z,16.33
2022-11-17T10:00:37.162Z,16.42
2022-11-17T10:03:14.171Z,15.40
2022-11-17T10:05:40.621Z,15.98
2022-11-17T10:08:11.628Z,16.15
2022-11-17T10:10:50.542Z,16.88
2022-11-17T10:13:25.158Z,16.60
2022-11-17T10:15:56.034Z,18.13
2022-11-17T10:18:22.506Z,17.88
2022-11-17T10:20:49.029Z,18.00
2022-11-17T10:23:20.798Z,18.33
2022-11-17T10:25:49.284Z,18.45
2022-11-17T10:28:28.191Z,17.30
2022-11-17T10:30:57.198Z,17.33
2022-11-17T10:33:39.011Z,18.73
2022-11-17T10:36:29.759Z,18.60
2022-11-17T10:38:58.956Z,18.70
2022-11-17T10:41:42.554Z,17.85
2022-11-17T10:44:26.447Z,19.33
2022-11-17T10:47:04.140Z,19.55
2022-11-17T10:49:35.681Z,19.17
2022-11-17T10:52:11.372Z,19.00
2022-11-17T10:54:38.468Z,19.02
2022-11-17T10:57:17.788Z,18.92
2022-11-17T10:59:56.725Z,19.27
2022-11-17T11:02:38.239Z,17.08
2022-11-17T11:05:10.641Z,18.63
2022-11-17T11:07:38.045Z,18.40
2022-11-17T11:10:16.677Z,18.33
2022-11-17T11:12:50.248Z,17.08
2022-11-17T11:15:23.633Z,17.60
2022-11-17T11:17:50.878Z,16.35
2022-11-17T11:20:21.192Z,17.77
2022-11-17T11:23:26.955Z,17.50
2022-11-17T11:26:01.229Z,16.23
2022-11-17T11:29:05.066Z,15.85
2022-11-17T11:31:45.701Z,17.02
2022-11-17T11:34:34.316Z,16.95
2022-11-17T11:37:09.717Z,15.63
2022-11-17T11:40:15.345Z,16.77
2022-11-17T11:42:57.728Z,16.50
2022-11-17T11:45:39.362Z,15.57
2022-11-17T11:48:15.345Z,16.58
2022-11-17T11:50:58.800Z,16.92
2022-11-17T11:53:46.109Z,14.95
2022-11-17T11:56:18.658Z,15.80
2022-11-17T11:58:51.495Z,15.95
2022-11-17T12:01:20.755Z,14.57
2022-11-17T12:04:05.981Z,16.15
2022-11-17T12:06:47.399Z,15.00
2022-11-17T12:09:22.920Z,15.30
2022-11-17T12:12:02.949Z,16.08
2022-11-17T12:14:35.310Z,14.70
2022-11-17T12:17:04.433Z,15.48
2022-11-17T12:19:54.316Z,16.23
2022-11-17T12:22:29.605Z,15.35
2022-11-17T12:25:05.790Z,15.20
2022-11-17T12:27:34.881Z,16.42
2022-11-17T12:30:03.610Z,14.95
2022-11-17T12:32:44.986Z,15.60
2022-11-17T12:35:32.721Z,15.65
2022-11-17T12:38:15.236Z,14.82
2022-11-17T12:40:47.710Z,15.23
2022-11-17T12:43:27.723Z,14.90
2022-11-17T12:45:59.881Z,15.45
2022-11-17T12:48:34.302Z,13.65
2022-11-17T12:51:26.585Z,14.60
2022-11-17T12:54:06.460Z,14.20
2022-11-17T12:57:03.212Z,13.25
2022-11-17T13:00:07.379Z,13.25
2022-11-17T13:02:59.978Z,14.05
2022-11-17T13:05:28.487Z,14.35
2022-11-17T13:08:09.940Z,14.10
2022-11-17T13:10:36.519Z,13.60
2022-11-17T13:13:10.954Z,15.10
2022-11-17T13:15:38.018Z,13.75
2022-11-17T13:18:10.946Z,14.25
2022-11-17T13:20:38.696Z,14.02
2022-11-17T13:23:23.937Z,12.50
2022-11-17T13:25:50.744Z,13.70
2022-11-17T13:28:31.742Z,13.55
2022-11-17T13:31:00.087Z,13.18
2022-11-17T13:33:27.375Z,13.70
2022-11-17T13:36:17.573Z,14.40
2022-11-17T13:38:52.222Z,14.07
2022-11-17T13:41:21.719Z,12.07
2022-11-17T13:43:49.585Z,13.40
2022-11-17T13:46:15.989Z,14.60
2022-11-17T13:48:47.258Z,12.02
2022-11-17T13:51:19.558Z,12.77
2022-11-17T13:54:02.837Z,12.95
2022-11-17T13:56:39.145Z,13.45
2022-11-17T13:59:33.746Z,12.38
2022-11-17T14:02:21.285Z,12.80
2022-11-17T14:05:18.407Z,13.05
2022-11-17T14:07:45.867Z,12.32
2022-11-17T14:10:21.353Z,12.98
2022-11-17T14:12:49.536Z,13.35
2022-11-17T14:15:22.871Z,13.63
2022-11-17T14:17:58.283Z,13.82
2022-11-17T14:20:24.667Z,13.57
2022-11-17T14:23:12.526Z,12.10
2022-11-17T14:25:44.275Z,12.75
2022-11-17T14:28:15.044Z,14.20
2022-11-17T14:30:41.837Z,13.88
2022-11-17T14:33:13.390Z,12.82
2022-11-17T14:35:40.456Z,13.68
2022-11-17T14:38:10.048Z,13.52
2022-11-17T14:40:36.501Z,13.38
2022-11-17T14:43:02.884Z,13.52
2022-11-17T14:45:29.762Z,13.38
2022-11-17T14:47:56.429Z,14.57
2022-11-17T14:50:23.026Z,13.50
2022-11-17T14:52:49.410Z,14.55
2022-11-17T14:55:15.894Z,15.35
2022-11-17T14:57:42.470Z,14.85
2022-11-17T15:00:13.436Z,14.00
2022-11-17T15:02:42.638Z,14.73
2022-11-17T15:05:09.449Z,15.63
2022-11-17T15:07:35.895Z,15.30
2022-11-17T15:10:03.632Z,15.27
2022-11-17T15:12:30.032Z,14.68
2022-11-17T15:14:59.112Z,14.13
2022-11-17T15:17:27.271Z,14.60
2022-11-17T15:19:54.451Z,15.70
2022-11-17T15:22:21.167Z,15.57
2022-11-17T15:24:47.619Z,14.70
2022-11-17T15:27:14.349Z,15.43
2022-11-17T15:29:40.731Z,16.92
2022-11-17T15:32:07.968Z,15.93
2022-11-17T15:34:37.689Z,15.75
2022-11-17T15:37:04.270Z,15.93
2022-11-17T15:39:30.717Z,14.93
2022-11-17T15:41:57.093Z,16.60
2022-11-17T15:44:23.459Z,16.48
2022-11-17T15:46:49.871Z,16.55
2022-11-17T15:49:16.572Z,17.20
2022-11-17T15:51:43.241Z,17.75
2022-11-17T15:54:18.567Z,17.35
2022-11-17T15:56:46.247Z,17.45
2022-11-17T15:59:12.704Z,16.25
2022-11-17T16:01:40.103Z,19.10
2022-11-17T16:04:12.001Z,17.88
2022-11-17T16:06:43.039Z,17.65
2022-11-17T16:09:10.308Z,18.48
2022-11-17T16:11:36.918Z,18.83
2022-11-17T16:14:04.438Z,21.10
2022-11-17T16:16:34.258Z,21.45
2022-11-17T16:19:00.720Z,21.17
2022-11-17T16:21:27.243Z,21.83
2022-11-17T16:23:55.843Z,21.10
2022-11-17T16:26:24.985Z,21.27
2022-11-17T16:29:02.581Z,21.50
2022-11-17T16:31:31.643Z,21.10
2022-11-17T16:34:00.297Z,21.77
2022-11-17T16:36:34.614Z,20.67
2022-11-17T16:39:05.369Z,22.52
2022-11-17T16:41:34.486Z,23.48
2022-11-17T16:44:01.791Z,22.15
2022-11-17T16:46:30.289Z,21.15
2022-11-17T16:49:01.848Z,23.50
2022-11-17T16:51:28.348Z,23.08
2022-11-17T16:53:57.051Z,21.60
2022-11-17T16:56:24.017Z,21.77
2022-11-17T16:58:51.035Z,22.48
2022-11-17T17:01:21.184Z,22.55
2022-11-17T17:03:47.598Z,20.27
2022-11-17T17:06:16.968Z,22.35
2022-11-17T17:08:43.940Z,21.48
2022-11-17T17:11:12.925Z,22.27
2022-11-17T17:13:39.994Z,20.98
2022-11-17T17:16:07.923Z,21.00
2022-11-17T17:18:35.257Z,20.25
2022-11-17T17:21:02.021Z,21.48
2022-11-17T17:23:29.007Z,21.48
2022-11-17T17:26:01.990Z,21.40
2022-11-17T17:28:36.815Z,20.13
2022-11-17T17:31:04.164Z,20.58
2022-11-17T17:33:35.263Z,21.20
2022-11-17T17:38:35.834Z,21.40
2022-11-17T17:41:16.563Z,20.35
2022-11-17T17:43:44.743Z,19.65
2022-11-17T17:46:15.715Z,20.88
2022-11-17T17:48:44.379Z,22.02
2022-11-17T17:51:17.876Z,21.75
2022-11-17T17:53:44.637Z,21.27
2022-11-17T17:56:13.189Z,19.80
2022-11-17T17:58:41.132Z,20.98
2022-11-17T18:01:10.076Z,19.25
2022-11-17T18:03:37.268Z,20.42
2022-11-17T18:06:03.875Z,21.95
2022-11-17T18:08:34.675Z,20.77
2022-11-17T18:11:01.810Z,21.75
2022-11-17T18:13:37.567Z,21.42
2022-11-17T18:16:06.354Z,22.23
2022-11-17T18:18:33.711Z,21.38
2022-11-17T18:21:08.889Z,20.48
2022-11-17T18:23:36.565Z,21.13
2022-11-17T18:26:19.373Z,21.77
2022-11-17T18:28:53.627Z,21.23
2022-11-17T18:31:21.646Z,21.42
2022-11-17T18:33:56.510Z,22.17
2022-11-17T18:36:23.331Z,21.42
2022-11-17T18:38:51.006Z,22.15
2022-11-17T18:41:17.726Z,24.55
2022-11-17T18:43:44.432Z,21.20
2022-11-17T18:46:13.540Z,22.15
2022-11-17T18:48:42.066Z,22.13
2022-11-17T18:51:21.223Z,22.67
2022-11-17T18:53:52.936Z,22.48
2022-11-17T18:56:25.166Z,22.38
2022-11-17T18:58:52.185Z,24.42
2022-11-17T19:01:23.388Z,22.98
2022-11-17T19:03:52.430Z,24.63
2022-11-17T19:06:20.539Z,22.70
2022-11-17T19:08:48.115Z,24.50
2022-11-17T19:11:16.328Z,22.10
2022-11-17T19:13:43.618Z,24.42
2022-11-17T19:16:21.677Z,25.25
2022-11-17T19:18:49.487Z,24.67
2022-11-17T19:21:21.234Z,25.05
2022-11-17T19:23:51.783Z,24.58
2022-11-17T19:28:47.772Z,23.63
2022-11-17T19:31:17.205Z,22.00
2022-11-17T19:33:45.039Z,23.05
2022-11-17T19:36:13.773Z,25.48
2022-11-17T19:38:40.716Z,24.88
2022-11-17T19:41:10.198Z,24.83
2022-11-17T19:43:43.404Z,26.15
2022-11-17T19:46:14.013Z,25.20
2022-11-17T19:48:42.293Z,26.80
2022-11-17T19:51:29.977Z,27.88
2022-11-17T19:53:58.306Z,24.75
2022-11-17T19:56:25.595Z,25.42
2022-11-17T19:58:53.813Z,26.35
2022-11-17T20:01:22.780Z,26.92
2022-11-17T20:03:50.220Z,25.55
2022-11-17T20:06:19.429Z,26.08
2022-11-17T20:08:46.797Z,27.48
2022-11-17T20:11:19.564Z,27.80
2022-11-17T20:13:46.516Z,27.48
2022-11-17T20:16:15.867Z,26.73
2022-11-17T20:18:43.750Z,25.85
2022-11-17T20:21:11.762Z,27.05
2022-11-17T20:23:39.305Z,26.42
2022-11-17T20:26:08.017Z,26.63
2022-11-17T20:28:36.263Z,26.02
2022-11-17T20:31:11.500Z,27.05
2022-11-17T20:33:39.092Z,26.65
2022-11-17T20:36:06.533Z,24.70
2022-11-17T20:38:33.229Z,25.70
2022-11-17T20:41:00.564Z,25.50
2022-11-17T20:43:27.786Z,26.42
2022-11-17T20:45:55.220Z,24.00
2022-11-17T20:48:23.388Z,24.42
2022-11-17T20:51:04.677Z,27.20
2022-11-17T20:53:35.652Z,25.73
2022-11-17T20:56:04.746Z,27.02
2022-11-17T20:58:32.456Z,26.23
2022-11-17T21:00:59.372Z,24.55
2022-11-17T21:03:31.889Z,26.73
2022-11-17T21:06:05.912Z,27.13
2022-11-17T21:08:38.518Z,26.75
2022-11-17T21:11:11.038Z,28.38
2022-11-17T21:13:41.375Z,28.45
2022-11-17T21:16:18.553Z,27.23
2022-11-17T21:18:59.473Z,27.83
2022-11-17T21:21:26.124Z,30.17
2022-11-17T21:23:54.425Z,28.73
2022-11-17T21:26:24.955Z,28.70
2022-11-17T21:28:52.483Z,22.73
2022-11-17T21:31:26.098Z,28.15
2022-11-17T21:33:55.129Z,28.48
2022-11-17T21:36:23.180Z,29.42
2022-11-17T21:38:49.784Z,28.13
2022-11-17T21:41:23.112Z,28.35
2022-11-17T21:43:51.051Z,27.88
2022-11-17T21:46:22.754Z,29.13
2022-11-17T21:48:49.979Z,28.88
2022-11-17T21:51:22.001Z,29.80
2022-11-17T21:53:53.063Z,28.10
2022-11-17T21:56:19.503Z,29.67
2022-11-17T21:58:46.102Z,25.75
2022-11-17T22:01:14.961Z,27.70
2022-11-17T22:03:42.483Z,29.33
2022-11-17T22:06:10.323Z,28.80
2022-11-17T22:08:42.180Z,28.90
2022-11-17T22:11:11.330Z,28.42
2022-11-17T22:13:38.321Z,29.10
2022-11-17T22:16:07.442Z,26.67
2022-11-17T22:18:34.134Z,26.75
2022-11-17T22:21:00.690Z,30.20
2022-11-17T22:23:28.346Z,28.75
2022-11-17T22:26:02.785Z,29.48
2022-11-17T22:28:29.193Z,29.02
2022-11-17T22:30:55.938Z,29.50
2022-11-17T22:33:23.288Z,29.73
2022-11-17T22:35:50.125Z,27.30
2022-11-17T22:38:16.990Z,27.52
2022-11-17T22:40:43.384Z,28.65
2022-11-17T22:43:14.611Z,27.83
2022-11-17T22:45:41.590Z,29.38
2022-11-17T22:48:08.250Z,28.48
2022-11-17T22:50:36.038Z,29.15
2022-11-17T22:53:02.707Z,27.70
2022-11-17T22:55:29.375Z,27.25
2022-11-17T22:57:55.776Z,28.42
2022-11-17T23:00:22.236Z,28.52
2022-11-17T23:02:48.672Z,28.48
2022-11-17T23:05:15.201Z,28.65
2022-11-17T23:07:41.765Z,28.20
2022-11-17T23:10:09.318Z,28.27
2022-11-17T23:12:35.721Z,28.33
2022-11-17T23:15:02.131Z,29.13
2022-11-17T23:17:28.514Z,28.65
2022-11-17T23:19:54.896Z,28.35
2022-11-17T23:22:21.336Z,27.63
2022-11-17T23:24:47.740Z,28.15
2022-11-17T23:27:14.143Z,28.60
2022-11-17T23:29:40.525Z,28.38
2022-11-17T23:32:06.918Z,29.48
2022-11-17T23:34:33.295Z,28.75
2022-11-17T23:37:03.500Z,28.20
2022-11-17T23:39:30.434Z,29.58
2022-11-17T23:41:56.810Z,29.77
2022-11-17T23:44:23.194Z,28.52
2022-11-17T23:46:49.579Z,29.63
2022-11-17T23:49:16.325Z,27.88
2022-11-17T23:51:43.114Z,30.88
2022-11-17T23:54:13.134Z,29.08
2022-11-17T23:56:39.865Z,28.95
2022-11-17T23:59:07.979Z,30.50
